ADDS METAR Data INFO
IDs: Format: Raw Decoded Include TAF

Data at: 0028 UTC 11 Dec 2017

KFTG 102347Z 32005KT 10SM SKC 10/M20 A3034
KFTG 102247Z 26010KT 10SM FEW200 14/M19 A3034
KFTG 102147Z 28004KT 10SM FEW200 17/M21 A3034
KFTG 102050Z 00000KT 10SM SKC 17/M21 A3035
KFTG 101955Z 00000KT 10SM SKC 16/M21 A3037
KFTG 101858Z 26009KT 10SM SKC 15/M20 A3040
KFTG 101747Z 24009KT 10SM SKC 14/M19 A3042
KFTG 101650Z 22007KT 10SM SKC 12/M18 A3042
KFTG 101550Z 21008KT 10SM SKC 08/M19 A3041
KFTG 101447Z 18009KT 10SM FEW220 04/M20 A3040
KFTG 101347Z 18009KT 10SM FEW220 M02/M18 A3039
KFTG 101254Z AUTO 19007KT 10SM CLR 00/M18 A3040 RMK AO2 T10031183
KFTG 101230Z AUTO 19009G17KT 10SM CLR 03/M19 A3039 RMK AO2 T00281193
KFTG 101212Z AUTO 21012G17KT 10SM CLR 03/M19 A3039 RMK AO2 T00321194
KFTG 101151Z AUTO 21009KT 10SM CLR 03/M19 A3039 RMK AO2 T00341191
KFTG 101133Z AUTO 21009KT 10SM CLR 03/M19 A3039 RMK AO2 T00331192
KFTG 101115Z AUTO 20006KT 10SM CLR 04/M19 A3039 RMK AO2 T00381191
KFTG 101053Z AUTO 19008KT 10SM CLR 00/M18 A3039 RMK AO2 T10031179
KFTG 101030Z AUTO 19008KT 10SM CLR M01/M17 A3039 RMK AO2 T10111175
KFTG 101012Z AUTO 20006KT 10SM CLR 04/M19 A3040 RMK AO2 T00361189
KFTG 100954Z AUTO 21012KT 10SM CLR 05/M20 A3040 RMK AO2 T00451196
KFTG 100930Z AUTO 19006KT 10SM CLR 03/M18 A3040 RMK AO2 T00311185
KFTG 100912Z AUTO 20010KT 10SM CLR 04/M19 A3040 RMK AO2 T00351188
KFTG 100854Z AUTO 21010KT 10SM CLR 05/M20 A3040 RMK AO2 T00471198
KFTG 100830Z AUTO 21011KT 10SM CLR 05/M19 A3041 RMK AO2 T00451192
KFTG 100812Z AUTO 21011KT 10SM CLR 04/M19 A3041 RMK AO2 T00421190
KFTG 100754Z AUTO 20007KT 10SM CLR 05/M19 A3041 RMK AO2 T00461189
KFTG 100730Z AUTO 21010KT 10SM CLR 04/M18 A3040 RMK AO2 T00351179
KFTG 100712Z AUTO 20008KT 10SM CLR 04/M18 A3040 RMK AO2 T00441178
KFTG 100653Z AUTO 21010KT 10SM CLR 04/M18 A3040 RMK AO2 T00411176
KFTG 100630Z AUTO 19005KT 10SM CLR 04/M18 A3041 RMK AO2 T00431176
KFTG 100612Z AUTO 21009KT 10SM CLR 03/M17 A3041 RMK AO2 T00311172
KFTG 100554Z AUTO 21007KT 10SM CLR 04/M17 A3041 RMK AO2 T00351172
KFTG 100530Z AUTO 22008KT 10SM CLR 04/M17 A3041 RMK AO2 T00411174
KFTG 100512Z AUTO 22008KT 10SM CLR 04/M17 A3040 RMK AO2 T00361169
KFTG 100454Z AUTO 22008KT 10SM CLR 04/M17 A3040 RMK AO2 T00411169
KFTG 100430Z AUTO 21009KT 10SM CLR 05/M17 A3041 RMK AO2 T00491166
KFTG 100412Z AUTO 21010KT 10SM CLR M01/M16 A3040 RMK AO2 T10111162
KFTG 100354Z AUTO 22008KT 10SM CLR 03/M16 A3040 RMK AO2 T00281165
KFTG 100347Z 21006KT 10SM SKC M02/M17 A3040
KFTG 100336Z AUTO 21006KT 10SM CLR M01/M17 A3040 RMK AO2 T10071168
KFTG 100312Z AUTO 21005KT 10SM CLR 00/M17 A3040 RMK AO2 T10011166
KFTG 100255Z 19006KT 10SM SKC 01/M17 A3040
KFTG 100147Z 17006KT 10SM FEW220 03/M17 A3039
KFTG 100050Z 10003KT 10SM FEW180 07/M18 A3036
KFTG 092348Z 04006KT 10SM FEW180 08/M18 A3033
KFTG 092248Z 04008KT 10SM FEW180 12/M17 A3033
KFTG 092158Z 05010KT 10SM FEW180 14/M17 A3032
KFTG 092052Z 08006KT 10SM FEW180 16/M18 A3030
KFTG 091958Z 05003KT 10SM FEW180 15/M19 A3030
KFTG 091855Z 12007KT 10SM FEW180 15/M18 A3033
KFTG 091748Z 13004KT 10SM FEW180 14/M17 A3036
KFTG 091655Z 24004KT 10SM FEW180 12/M17 A3036
KFTG 091552Z 16003KT 10SM FEW180 09/M18 A3035
KFTG 091451Z 21008KT 10SM FEW180 05/M19 A3032
KFTG 091347Z 21009KT 10SM FEW180 04/M18 A3030
KFTG 091254Z AUTO 23010KT 10SM CLR 03/M18 A3029 RMK AO2 T00281177
KFTG 091230Z AUTO 22011KT 10SM CLR 03/M18 A3029 RMK AO2 T00301178